Time;durP1;ratioP1;P1;durP2;ratioP2;P2;SDS_P1;SDS_P2;PMS_P1;PMS_P2;Temp;Humidity;BMP_temperature;BMP_pressure;BME280_temperature;BME280_humidity;BME280_pressure;Samples;Min_cycle;Max_cycle;Signal;HPM_P1;HPM_P2
2021/04/23 00:00:44;;;;;;;;;11.75;11.75;;;;;;;;5011029;28;11435;-81
2021/04/23 00:03:17;;;;;;;;;9.75;8.50;;;;;;;;5021354;28;12242;-80
2021/04/23 00:05:45;;;;;;;;;10.00;7.00;;;;;;;;5019991;28;11639;-81
2021/04/23 00:08:14;;;;;;;;;7.25;7.25;;;;;;;;5021322;28;11510;-80
2021/04/23 00:10:42;;;;;;;;;8.00;8.00;;;;;;;;5021022;28;11470;-79
2021/04/23 00:13:09;;;;;;;;;13.75;10.50;;;;;;;;5016471;28;11598;-82
2021/04/23 00:15:36;;;;;;;;;8.50;8.50;;;;;;;;5018220;28;12031;-80
2021/04/23 00:18:04;;;;;;;;;8.50;8.50;;;;;;;;5020735;28;12570;-79
2021/04/23 00:20:31;;;;;;;;;12.75;10.75;;;;;;;;5020672;28;11505;-80
2021/04/23 00:23:01;;;;;;;;;8.00;8.00;;;;;;;;5018388;28;11742;-80
2021/04/23 00:25:29;;;;;;;;;12.75;10.00;;;;;;;;5014571;28;11621;-80
2021/04/23 00:27:59;;;;;;;;;10.50;10.50;;;;;;;;5021211;28;11622;-80
2021/04/23 00:30:27;;;;;;;;;12.25;7.50;;;;;;;;5017164;28;11414;-81
2021/04/23 00:32:54;;;;;;;;;11.00;9.75;;;;;;;;5018366;28;12434;-80
2021/04/23 00:35:23;;;;;;;;;10.00;8.00;;;;;;;;5019785;28;11459;-79
2021/04/23 00:37:51;;;;;;;;;10.00;8.25;;;;;;;;5018333;28;11504;-81
2021/04/23 00:40:21;;;;;;;;;15.00;11.00;;;;;;;;5013071;28;11502;-79
2021/04/23 00:42:49;;;;;;;;;11.50;7.75;;;;;;;;5021088;28;11488;-80
2021/04/23 00:45:20;;;;;;;;;10.00;9.50;;;;;;;;5012817;28;11517;-79
2021/04/23 00:47:50;;;;;;;;;7.25;6.75;;;;;;;;5016782;28;11487;-80
2021/04/23 00:50:29;;;;;;;;;19.50;13.50;;;;;;;;5025668;28;11615;-80
2021/04/23 00:52:56;;;;;;;;;10.25;9.25;;;;;;;;5021113;28;12270;-79
2021/04/23 00:55:23;;;;;;;;;15.00;12.75;;;;;;;;5024597;28;11592;-78
2021/04/23 00:57:50;;;;;;;;;13.75;13.75;;;;;;;;5024185;28;11532;-80
2021/04/23 01:00:21;;;;;;;;;12.00;10.00;;;;;;;;5021016;28;11511;-79
2021/04/23 01:02:49;;;;;;;;;19.00;14.25;;;;;;;;5022760;28;11674;-77
2021/04/23 01:05:16;;;;;;;;;11.00;10.25;;;;;;;;5022488;28;11551;-78
2021/04/23 01:07:46;;;;;;;;;11.75;11.75;;;;;;;;5025169;28;11613;-78
2021/04/23 01:10:14;;;;;;;;;14.00;10.75;;;;;;;;5016796;28;11566;-80
2021/04/23 01:12:44;;;;;;;;;14.50;12.00;;;;;;;;5021779;28;11569;-80
2021/04/23 01:15:12;;;;;;;;;17.00;10.50;;;;;;;;5021445;28;11571;-80
2021/04/23 01:17:40;;;;;;;;;13.00;10.50;;;;;;;;5022990;28;12301;-79
2021/04/23 01:20:13;;;;;;;;;11.50;8.00;;;;;;;;5023416;28;11694;-79
2021/04/23 01:22:41;;;;;;;;;11.75;9.00;;;;;;;;5011505;28;11579;-79
2021/04/23 01:25:12;;;;;;;;;11.00;8.00;;;;;;;;5023243;28;11504;-79
2021/04/23 01:27:40;;;;;;;;;15.00;10.75;;;;;;;;5023622;28;11540;-79
2021/04/23 01:30:11;;;;;;;;;13.75;11.75;;;;;;;;5020316;28;11535;-79
2021/04/23 01:32:38;;;;;;;;;11.00;9.75;;;;;;;;5018513;28;11594;-80
2021/04/23 01:35:07;;;;;;;;;12.50;10.25;;;;;;;;5024072;28;11701;-80
2021/04/23 01:37:35;;;;;;;;;15.50;10.50;;;;;;;;5015836;28;11558;-80
2021/04/23 01:40:05;;;;;;;;;7.25;7.25;;;;;;;;5017943;28;12827;-79
2021/04/23 01:42:35;;;;;;;;;11.00;10.50;;;;;;;;5021956;28;11482;-78
2021/04/23 01:47:43;;;;;;;;;9.50;9.50;;;;;;;;5023695;28;11706;-78
2021/04/23 01:50:19;;;;;;;;;13.75;10.00;;;;;;;;5020442;28;11567;-79
2021/04/23 01:52:53;;;;;;;;;13.50;10.75;;;;;;;;5022416;28;11564;-78
2021/04/23 01:55:24;;;;;;;;;13.50;13.00;;;;;;;;5019570;28;11592;-78
2021/04/23 01:57:51;;;;;;;;;13.00;10.25;;;;;;;;5023975;28;11686;-77
2021/04/23 02:00:25;;;;;;;;;16.50;14.25;;;;;;;;5016163;28;11569;-79
2021/04/23 02:02:53;;;;;;;;;10.50;9.25;;;;;;;;5023790;28;11567;-79
2021/04/23 02:05:24;;;;;;;;;13.50;11.00;;;;;;;;5024138;28;11533;-78
2021/04/23 02:07:51;;;;;;;;;16.75;14.50;;;;;;;;5018570;28;11591;-79
2021/04/23 02:10:22;;;;;;;;;13.50;11.00;;;;;;;;5023617;28;11602;-78
2021/04/23 02:12:50;;;;;;;;;17.00;13.50;;;;;;;;5017699;28;11500;-79
2021/04/23 02:15:17;;;;;;;;;9.75;9.75;;;;;;;;5019338;28;11602;-78
2021/04/23 02:17:45;;;;;;;;;13.75;10.25;;;;;;;;5020980;28;11499;-79
2021/04/23 02:20:15;;;;;;;;;18.25;15.25;;;;;;;;5022087;28;11577;-79
2021/04/23 02:22:43;;;;;;;;;26.25;15.75;;;;;;;;5020348;28;11710;-81
2021/04/23 02:25:11;;;;;;;;;20.25;17.50;;;;;;;;5021532;28;11600;-79
2021/04/23 02:27:39;;;;;;;;;15.75;15.75;;;;;;;;5022283;28;11653;-79
2021/04/23 02:30:09;;;;;;;;;19.00;15.75;;;;;;;;5019470;28;11601;-79
2021/04/23 02:32:36;;;;;;;;;14.00;10.00;;;;;;;;5023576;28;11642;-80
2021/04/23 02:35:04;;;;;;;;;10.50;10.25;;;;;;;;5021841;28;11576;-80
2021/04/23 02:37:31;;;;;;;;;16.25;13.75;;;;;;;;5019553;28;11561;-80
2021/04/23 02:39:58;;;;;;;;;15.50;15.50;;;;;;;;5019508;28;11623;-79
2021/04/23 02:42:26;;;;;;;;;15.25;14.75;;;;;;;;5018042;28;12392;-81
2021/04/23 02:44:56;;;;;;;;;16.50;16.50;;;;;;;;5018568;28;11597;-81
2021/04/23 02:47:23;;;;;;;;;17.50;16.00;;;;;;;;5017235;28;11575;-80
2021/04/23 02:49:50;;;;;;;;;20.75;17.00;;;;;;;;5024069;28;11579;-81
2021/04/23 02:52:18;;;;;;;;;13.25;13.25;;;;;;;;5018336;28;11593;-78
2021/04/23 02:54:46;;;;;;;;;13.00;10.50;;;;;;;;5013772;28;11702;-79
2021/04/23 02:57:15;;;;;;;;;16.00;13.75;;;;;;;;5019648;28;11622;-80
2021/04/23 02:59:43;;;;;;;;;17.75;17.50;;;;;;;;5022450;28;11763;-79
2021/04/23 03:02:13;;;;;;;;;13.75;12.00;;;;;;;;5014732;28;11542;-79
2021/04/23 03:04:41;;;;;;;;;17.25;16.00;;;;;;;;5020441;28;11602;-79
2021/04/23 03:07:08;;;;;;;;;21.00;16.50;;;;;;;;5018785;28;11582;-79
2021/04/23 03:09:35;;;;;;;;;20.25;19.25;;;;;;;;5021277;28;11608;-79
2021/04/23 03:12:02;;;;;;;;;23.50;18.75;;;;;;;;5020595;28;11597;-78
2021/04/23 03:14:29;;;;;;;;;15.50;15.50;;;;;;;;5020086;28;11633;-79
2021/04/23 03:16:56;;;;;;;;;15.00;13.75;;;;;;;;5022516;28;11596;-79
2021/04/23 03:19:24;;;;;;;;;17.25;17.25;;;;;;;;5023351;28;11577;-79
2021/04/23 03:21:51;;;;;;;;;20.25;18.00;;;;;;;;5014380;28;11610;-79
2021/04/23 03:24:20;;;;;;;;;26.75;21.25;;;;;;;;5021808;28;11617;-78
2021/04/23 03:26:48;;;;;;;;;24.25;20.00;;;;;;;;5049733;28;11731;-80
2021/04/23 03:29:16;;;;;;;;;16.50;16.50;;;;;;;;5023719;28;11624;-81
2021/04/23 03:31:43;;;;;;;;;19.75;16.00;;;;;;;;5021078;28;11685;-80
2021/04/23 03:34:13;;;;;;;;;16.00;13.50;;;;;;;;5013645;28;11608;-80
2021/04/23 03:36:42;;;;;;;;;18.25;16.50;;;;;;;;5017318;28;12140;-79
2021/04/23 03:39:11;;;;;;;;;16.75;15.00;;;;;;;;5018659;28;11704;-80
2021/04/23 03:41:40;;;;;;;;;17.50;15.00;;;;;;;;5021952;28;11602;-80
2021/04/23 03:44:07;;;;;;;;;16.00;14.50;;;;;;;;5019408;28;11610;-79
2021/04/23 03:46:34;;;;;;;;;14.00;12.50;;;;;;;;5013810;28;11709;-79
2021/04/23 03:49:02;;;;;;;;;16.25;13.25;;;;;;;;5013083;28;11599;-79
2021/04/23 03:51:29;;;;;;;;;15.75;15.75;;;;;;;;5014287;28;12504;-78
2021/04/23 03:53:57;;;;;;;;;26.00;21.75;;;;;;;;5020407;28;12523;-81
2021/04/23 03:56:24;;;;;;;;;33.00;30.00;;;;;;;;5020072;28;11738;-78
2021/04/23 03:58:53;;;;;;;;;48.50;39.25;;;;;;;;5022219;28;11642;-82
2021/04/23 04:01:23;;;;;;;;;74.00;55.00;;;;;;;;5018837;28;11710;-78
2021/04/23 04:03:50;;;;;;;;;67.67;56.33;;;;;;;;5019251;28;11611;-83
2021/04/23 04:06:18;;;;;;;;;80.00;62.33;;;;;;;;5021047;28;8873;-81
2021/04/23 04:08:44;;;;;;;;;75.67;60.67;;;;;;;;5017572;28;10004;-79
2021/04/23 04:11:12;;;;;;;;;75.67;59.33;;;;;;;;5022885;28;8899;-81
2021/04/23 04:13:39;;;;;;;;;67.00;53.33;;;;;;;;5026958;28;8896;-80
2021/04/23 04:16:07;;;;;;;;;60.33;51.00;;;;;;;;5022958;28;8927;-81
2021/04/23 04:18:34;;;;;;;;;63.00;52.33;;;;;;;;5020314;28;11703;-80
2021/04/23 04:21:01;;;;;;;;;58.75;46.75;;;;;;;;5022194;28;11566;-80
2021/04/23 04:23:29;;;;;;;;;44.00;40.25;;;;;;;;5019061;28;12829;-79
2021/04/23 04:25:58;;;;;;;;;39.25;37.25;;;;;;;;5021434;28;11616;-80
2021/04/23 04:28:28;;;;;;;;;40.50;36.25;;;;;;;;5021997;28;11741;-83
2021/04/23 04:30:56;;;;;;;;;32.25;27.50;;;;;;;;5022802;28;11554;-81
2021/04/23 04:33:23;;;;;;;;;25.25;24.50;;;;;;;;5022743;28;12580;-81
2021/04/23 04:35:49;;;;;;;;;26.25;24.75;;;;;;;;5022052;28;11633;-80
2021/04/23 04:38:17;;;;;;;;;24.25;21.00;;;;;;;;5022603;28;11613;-82
2021/04/23 04:40:47;;;;;;;;;29.75;25.50;;;;;;;;5020615;28;11675;-80
2021/04/23 04:43:16;;;;;;;;;22.50;22.00;;;;;;;;5036664;28;11588;-81
2021/04/23 04:45:45;;;;;;;;;24.25;24.25;;;;;;;;5021759;28;11635;-82
2021/04/23 04:48:12;;;;;;;;;24.00;24.00;;;;;;;;5022953;28;11648;-85
2021/04/23 04:50:43;;;;;;;;;27.00;24.00;;;;;;;;5019538;28;11587;-83
2021/04/23 04:53:11;;;;;;;;;24.50;22.75;;;;;;;;5021159;28;11672;-81
2021/04/23 04:55:41;;;;;;;;;24.25;23.00;;;;;;;;5022296;28;11555;-80
2021/04/23 04:58:10;;;;;;;;;21.00;20.50;;;;;;;;5020978;28;11624;-80
2021/04/23 05:00:38;;;;;;;;;19.75;19.75;;;;;;;;5021963;28;11553;-80
2021/04/23 05:03:07;;;;;;;;;25.25;24.75;;;;;;;;5018786;28;11706;-83
2021/04/23 05:05:35;;;;;;;;;28.00;25.50;;;;;;;;5023001;28;11650;-82
2021/04/23 05:08:03;;;;;;;;;25.50;23.75;;;;;;;;5021370;28;11615;-78
2021/04/23 05:10:30;;;;;;;;;29.00;23.50;;;;;;;;5021836;28;12411;-81
2021/04/23 05:13:02;;;;;;;;;27.25;25.00;;;;;;;;5010978;28;11590;-79
2021/04/23 05:15:29;;;;;;;;;29.00;23.50;;;;;;;;5019403;28;11594;-80
2021/04/23 05:17:56;;;;;;;;;28.75;24.25;;;;;;;;5022690;28;11610;-80
2021/04/23 05:20:25;;;;;;;;;30.25;25.00;;;;;;;;5020343;28;12379;-81
2021/04/23 05:22:53;;;;;;;;;28.00;23.00;;;;;;;;5021384;28;11590;-80
2021/04/23 05:25:22;;;;;;;;;17.00;17.00;;;;;;;;5019438;28;11597;-79
2021/04/23 05:27:50;;;;;;;;;21.50;19.75;;;;;;;;5022428;28;11608;-82
2021/04/23 05:30:20;;;;;;;;;25.25;22.75;;;;;;;;5020707;28;12442;-79
2021/04/23 05:32:48;;;;;;;;;20.75;18.75;;;;;;;;5028552;28;11724;-79
2021/04/23 05:35:17;;;;;;;;;17.25;17.25;;;;;;;;5025151;28;11713;-80
2021/04/23 05:37:45;;;;;;;;;26.50;22.00;;;;;;;;5015051;28;11602;-80
2021/04/23 05:40:16;;;;;;;;;20.25;20.25;;;;;;;;5025191;28;11620;-80
2021/04/23 05:42:43;;;;;;;;;19.25;17.25;;;;;;;;5025240;28;11593;-80
2021/04/23 05:45:11;;;;;;;;;24.25;16.50;;;;;;;;5014784;28;11619;-81
2021/04/23 05:47:39;;;;;;;;;21.50;19.75;;;;;;;;5023870;28;11739;-81
2021/04/23 05:50:06;;;;;;;;;28.00;22.25;;;;;;;;5017886;28;11609;-77
2021/04/23 05:52:33;;;;;;;;;19.25;18.75;;;;;;;;5016481;28;11665;-76
2021/04/23 05:55:01;;;;;;;;;20.50;20.50;;;;;;;;5018878;28;11728;-76
2021/04/23 05:57:28;;;;;;;;;18.00;15.00;;;;;;;;5019690;28;11587;-76
2021/04/23 05:59:55;;;;;;;;;12.00;10.00;;;;;;;;5020006;28;12257;-77
2021/04/23 06:02:22;;;;;;;;;20.00;17.75;;;;;;;;5024802;28;11540;-78
2021/04/23 06:04:48;;;;;;;;;14.75;12.75;;;;;;;;5020425;28;11642;-78
2021/04/23 06:07:16;;;;;;;;;17.50;15.75;;;;;;;;5015801;28;11574;-79
2021/04/23 06:09:42;;;;;;;;;13.75;11.25;;;;;;;;5021941;28;12334;-79
2021/04/23 06:12:11;;;;;;;;;13.50;13.50;;;;;;;;5021800;28;11715;-79
2021/04/23 06:14:41;;;;;;;;;14.25;11.25;;;;;;;;5022981;28;11581;-75
2021/04/23 06:17:08;;;;;;;;;19.75;14.25;;;;;;;;5021337;28;12303;-74
2021/04/23 06:19:35;;;;;;;;;14.75;14.50;;;;;;;;5022913;28;11576;-75
2021/04/23 06:22:02;;;;;;;;;15.75;14.50;;;;;;;;5022523;28;11564;-75
2021/04/23 06:24:29;;;;;;;;;13.50;13.50;;;;;;;;5022768;28;11563;-75
2021/04/23 06:26:56;;;;;;;;;14.25;12.50;;;;;;;;5019713;28;12449;-74
2021/04/23 06:29:24;;;;;;;;;17.25;10.25;;;;;;;;5017152;28;11727;-75
2021/04/23 06:31:51;;;;;;;;;14.00;14.00;;;;;;;;5022442;28;11503;-75
2021/04/23 06:34:18;;;;;;;;;14.00;13.50;;;;;;;;5022201;28;11585;-75
2021/04/23 06:36:45;;;;;;;;;17.25;14.75;;;;;;;;5022829;28;11607;-75
2021/04/23 06:39:15;;;;;;;;;13.50;12.00;;;;;;;;5017171;28;11668;-75
2021/04/23 06:41:42;;;;;;;;;18.00;15.00;;;;;;;;5024027;28;11602;-75
2021/04/23 06:44:09;;;;;;;;;23.25;21.25;;;;;;;;5021603;28;11685;-75
2021/04/23 06:46:37;;;;;;;;;16.75;14.75;;;;;;;;5020407;28;11682;-74
2021/04/23 06:49:05;;;;;;;;;17.00;14.00;;;;;;;;5014635;28;11582;-73
2021/04/23 06:51:32;;;;;;;;;20.75;19.75;;;;;;;;5021999;28;11714;-74
2021/04/23 06:53:59;;;;;;;;;23.25;19.00;;;;;;;;5020631;28;11583;-73
2021/04/23 06:56:26;;;;;;;;;18.00;18.00;;;;;;;;5016945;28;11636;-73
2021/04/23 06:58:53;;;;;;;;;20.25;19.00;;;;;;;;5017058;28;11692;-72
2021/04/23 07:01:20;;;;;;;;;18.50;16.00;;;;;;;;5018819;28;11544;-73
2021/04/23 07:03:48;;;;;;;;;20.00;16.00;;;;;;;;5022286;28;11693;-72
2021/04/23 07:06:15;;;;;;;;;12.00;12.00;;;;;;;;5020917;28;11553;-72
2021/04/23 07:08:42;;;;;;;;;17.75;15.25;;;;;;;;5021522;28;11598;-73
2021/04/23 07:11:10;;;;;;;;;17.25;16.75;;;;;;;;5020409;28;11565;-73
2021/04/23 07:13:37;;;;;;;;;15.25;15.25;;;;;;;;5012618;28;11552;-74
2021/04/23 07:16:04;;;;;;;;;11.50;11.50;;;;;;;;5015844;28;11695;-72
2021/04/23 07:18:31;;;;;;;;;18.75;15.00;;;;;;;;5015982;28;11522;-72
2021/04/23 07:20:59;;;;;;;;;16.25;14.50;;;;;;;;5016434;28;11524;-74
2021/04/23 07:23:26;;;;;;;;;14.75;14.75;;;;;;;;5014901;28;11564;-73
2021/04/23 07:25:53;;;;;;;;;17.00;14.75;;;;;;;;5018989;28;11536;-73
2021/04/23 07:28:20;;;;;;;;;15.75;13.25;;;;;;;;5012446;28;11549;-72
2021/04/23 07:30:48;;;;;;;;;15.25;12.25;;;;;;;;5012170;28;11528;-73
2021/04/23 07:33:14;;;;;;;;;13.25;13.25;;;;;;;;5017240;28;11479;-73
2021/04/23 07:35:44;;;;;;;;;18.50;12.00;;;;;;;;5015257;28;11547;-73
2021/04/23 07:38:13;;;;;;;;;16.25;16.25;;;;;;;;5019635;28;11642;-73
2021/04/23 07:40:39;;;;;;;;;11.50;11.50;;;;;;;;5014246;28;11528;-74
2021/04/23 07:43:07;;;;;;;;;16.00;13.00;;;;;;;;5016384;28;11532;-72
2021/04/23 07:45:36;;;;;;;;;13.75;12.00;;;;;;;;5015255;28;11635;-73
2021/04/23 07:48:03;;;;;;;;;16.75;14.25;;;;;;;;5013571;28;11264;-73
2021/04/23 07:50:31;;;;;;;;;13.50;12.25;;;;;;;;5015576;28;11519;-75
2021/04/23 07:52:58;;;;;;;;;14.75;12.25;;;;;;;;5014762;28;11168;-74
2021/04/23 07:55:26;;;;;;;;;15.75;12.75;;;;;;;;5013586;28;11123;-73
2021/04/23 07:57:54;;;;;;;;;20.25;13.25;;;;;;;;5015217;28;11055;-72
2021/04/23 08:00:23;;;;;;;;;18.00;16.75;;;;;;;;5020894;28;10996;-73
2021/04/23 08:02:50;;;;;;;;;14.50;13.00;;;;;;;;5009644;28;10895;-73
2021/04/23 08:05:19;;;;;;;;;13.50;13.50;;;;;;;;5020953;28;10721;-74
2021/04/23 08:07:46;;;;;;;;;8.00;8.00;;;;;;;;5021115;28;10795;-73
2021/04/23 08:10:15;;;;;;;;;16.75;14.75;;;;;;;;5018461;28;10702;-74
2021/04/23 08:12:45;;;;;;;;;13.25;9.25;;;;;;;;5022295;28;11375;-74
2021/04/23 08:15:14;;;;;;;;;13.75;13.00;;;;;;;;5037487;28;10580;-73
2021/04/23 08:17:41;;;;;;;;;14.00;11.50;;;;;;;;5036260;28;10271;-72
2021/04/23 08:20:10;;;;;;;;;15.00;15.00;;;;;;;;5039967;28;10274;-72
2021/04/23 08:22:37;;;;;;;;;16.75;12.25;;;;;;;;5036651;28;10978;-74
2021/04/23 08:25:05;;;;;;;;;16.75;13.25;;;;;;;;5038495;28;10320;-73
2021/04/23 08:27:32;;;;;;;;;10.00;10.00;;;;;;;;5033194;28;10390;-73
2021/04/23 08:30:00;;;;;;;;;11.25;10.75;;;;;;;;5041298;28;10783;-74
2021/04/23 08:32:28;;;;;;;;;14.75;11.25;;;;;;;;5037264;28;9901;-75
2021/04/23 08:34:54;;;;;;;;;16.00;14.00;;;;;;;;5039553;28;10167;-74
2021/04/23 08:37:21;;;;;;;;;16.50;12.00;;;;;;;;5039478;28;10622;-73
2021/04/23 08:39:48;;;;;;;;;11.00;11.00;;;;;;;;5040135;28;9800;-74
2021/04/23 08:42:15;;;;;;;;;11.00;11.00;;;;;;;;5035475;28;9730;-74
2021/04/23 08:44:43;;;;;;;;;11.00;11.00;;;;;;;;5029640;28;9740;-75
2021/04/23 08:47:11;;;;;;;;;12.25;12.25;;;;;;;;5034415;28;9702;-75
2021/04/23 08:49:39;;;;;;;;;13.50;13.50;;;;;;;;5036121;28;9493;-75
2021/04/23 08:52:06;;;;;;;;;15.00;10.75;;;;;;;;5038870;28;9486;-74
2021/04/23 08:54:33;;;;;;;;;14.25;12.75;;;;;;;;5035962;28;9612;-75
2021/04/23 08:57:00;;;;;;;;;12.00;12.00;;;;;;;;5031128;28;9446;-74
2021/04/23 08:59:27;;;;;;;;;13.00;13.00;;;;;;;;5033544;28;9333;-75
2021/04/23 09:01:54;;;;;;;;;11.00;11.00;;;;;;;;5034831;28;9301;-74
2021/04/23 09:04:22;;;;;;;;;15.00;12.33;;;;;;;;5034443;28;9272;-74
2021/04/23 09:07:00;;;;;;;;;10.33;10.33;;;;;;;;5039608;28;9352;-75
2021/04/23 09:09:35;;;;;;;;;14.67;11.33;;;;;;;;5038958;28;9163;-75
2021/04/23 09:12:17;;;;;;;;;9.67;9.33;;;;;;;;5041307;28;9208;-74
2021/04/23 09:14:44;;;;;;;;;12.00;12.00;;;;;;;;5041778;28;10045;-74
2021/04/23 09:17:11;;;;;;;;;12.67;11.67;;;;;;;;5035927;28;9057;-74
2021/04/23 09:19:39;;;;;;;;;19.00;13.67;;;;;;;;5034049;28;9027;-75
2021/04/23 09:22:07;;;;;;;;;15.33;13.33;;;;;;;;5039956;28;8950;-75
2021/04/23 09:24:36;;;;;;;;;14.50;11.25;;;;;;;;5040578;28;8949;-75
2021/04/23 09:27:11;;;;;;;;;11.25;11.25;;;;;;;;5034608;28;8906;-74
2021/04/23 09:29:40;;;;;;;;;16.00;12.00;;;;;;;;5041500;28;8879;-74
2021/04/23 09:32:13;;;;;;;;;15.25;11.50;;;;;;;;5039360;28;8824;-73
2021/04/23 09:35:00;;;;;;;;;14.00;14.00;;;;;;;;5032317;28;8847;-74
2021/04/23 09:37:30;;;;;;;;;12.25;12.25;;;;;;;;5041558;28;8993;-74
2021/04/23 09:40:11;;;;;;;;;13.00;12.50;;;;;;;;5035567;28;9675;-74
2021/04/23 09:42:47;;;;;;;;;15.25;12.00;;;;;;;;5037250;28;8910;-74
2021/04/23 09:45:15;;;;;;;;;13.75;10.50;;;;;;;;5036360;28;8883;-75
2021/04/23 09:47:43;;;;;;;;;15.50;12.75;;;;;;;;5038382;28;8875;-74
2021/04/23 09:50:11;;;;;;;;;10.75;10.75;;;;;;;;5042045;28;8867;-74
2021/04/23 09:52:49;;;;;;;;;6.50;6.50;;;;;;;;5039347;28;8863;-75
2021/04/23 09:55:18;;;;;;;;;14.25;9.25;;;;;;;;5038925;28;8979;-74
2021/04/23 09:57:53;;;;;;;;;14.75;13.25;;;;;;;;5039726;28;9451;-74
2021/04/23 10:00:24;;;;;;;;;11.25;8.75;;;;;;;;5036873;28;8871;-74
2021/04/23 10:02:54;;;;;;;;;8.00;8.00;;;;;;;;5038484;28;8855;-74
2021/04/23 10:05:41;;;;;;;;;11.50;9.50;;;;;;;;5042649;28;8877;-73
2021/04/23 10:08:10;;;;;;;;;12.50;11.50;;;;;;;;5037680;28;8886;-74
2021/04/23 10:10:38;;;;;;;;;7.25;5.75;;;;;;;;5040576;28;8871;-74
2021/04/23 10:13:08;;;;;;;;;7.50;5.75;;;;;;;;5039843;28;9411;-74
2021/04/23 10:15:39;;;;;;;;;10.50;8.75;;;;;;;;5026967;28;8868;-74
2021/04/23 10:18:08;;;;;;;;;8.25;8.25;;;;;;;;5029366;28;8897;-76
2021/04/23 10:20:38;;;;;;;;;8.50;7.50;;;;;;;;5026170;28;8907;-74
2021/04/23 10:23:06;;;;;;;;;7.75;7.75;;;;;;;;5028297;28;8884;-74
2021/04/23 10:25:39;;;;;;;;;8.00;8.00;;;;;;;;5021906;28;8861;-74
2021/04/23 10:28:09;;;;;;;;;10.00;10.00;;;;;;;;5036721;28;8974;-75
2021/04/23 10:30:40;;;;;;;;;11.50;7.75;;;;;;;;5021984;28;9576;-74
2021/04/23 10:33:13;;;;;;;;;8.25;8.25;;;;;;;;5031502;28;8875;-77
2021/04/23 10:35:43;;;;;;;;;8.00;8.00;;;;;;;;5021415;28;8892;-76
2021/04/23 10:38:15;;;;;;;;;10.50;8.75;;;;;;;;5027526;28;8984;-74
2021/04/23 10:40:43;;;;;;;;;9.50;7.25;;;;;;;;5031807;28;8982;-76
2021/04/23 10:43:13;;;;;;;;;24.00;21.00;;;;;;;;5020240;28;8865;-78
2021/04/23 10:45:44;;;;;;;;;10.00;9.25;;;;;;;;5017950;28;8907;-78
2021/04/23 10:48:32;;;;;;;;;14.00;9.25;;;;;;;;5014430;28;9677;-79
2021/04/23 10:51:02;;;;;;;;;6.00;6.00;;;;;;;;5009901;28;8901;-77
2021/04/23 10:53:50;;;;;;;;;10.25;8.75;;;;;;;;5015891;28;8852;-77
2021/04/23 10:56:29;;;;;;;;;8.50;7.00;;;;;;;;5019257;28;9611;-77
2021/04/23 10:58:57;;;;;;;;;8.00;7.25;;;;;;;;5029586;28;8875;-78
2021/04/23 11:01:29;;;;;;;;;4.75;4.75;;;;;;;;5032463;28;8833;-76
2021/04/23 11:04:04;;;;;;;;;7.00;6.00;;;;;;;;5021394;28;8955;-76
2021/04/23 11:06:34;;;;;;;;;5.25;5.25;;;;;;;;5025598;28;8863;-77
2021/04/23 11:09:08;;;;;;;;;7.00;5.25;;;;;;;;5027816;28;8890;-75
2021/04/23 11:11:36;;;;;;;;;5.00;4.25;;;;;;;;5038486;28;9009;-74
2021/04/23 11:14:24;;;;;;;;;7.00;7.00;;;;;;;;5030563;28;8992;-76
2021/04/23 11:16:53;;;;;;;;;6.00;5.50;;;;;;;;5024236;28;8858;-76
2021/04/23 11:19:37;;;;;;;;;7.00;5.25;;;;;;;;5026410;28;8860;-74
2021/04/23 11:22:13;;;;;;;;;7.50;5.50;;;;;;;;5018293;28;8854;-74
2021/04/23 11:24:41;;;;;;;;;4.00;4.00;;;;;;;;5023016;28;8881;-74
2021/04/23 11:27:10;;;;;;;;;7.75;6.50;;;;;;;;5028435;28;8998;-74
2021/04/23 11:29:43;;;;;;;;;1.50;1.50;;;;;;;;5019872;28;8876;-74
2021/04/23 11:32:12;;;;;;;;;9.25;7.25;;;;;;;;5026870;28;8850;-75
2021/04/23 11:34:41;;;;;;;;;7.20;7.20;;;;;;;;5023863;28;8895;-74
2021/04/23 11:37:13;;;;;;;;;5.20;5.20;;;;;;;;5031997;28;8965;-72
2021/04/23 11:39:44;;;;;;;;;7.40;7.00;;;;;;;;5023725;28;8866;-72
2021/04/23 11:42:17;;;;;;;;;6.60;6.60;;;;;;;;5027096;28;8854;-74
2021/04/23 11:44:50;;;;;;;;;6.00;6.00;;;;;;;;5030613;28;8863;-74
2021/04/23 11:47:19;;;;;;;;;6.80;5.00;;;;;;;;5029777;28;8875;-74
2021/04/23 11:49:46;;;;;;;;;7.20;7.20;;;;;;;;5024185;28;8984;-73
2021/04/23 11:52:14;;;;;;;;;6.80;6.80;;;;;;;;5026920;28;8905;-75
2021/04/23 11:54:43;;;;;;;;;5.20;4.40;;;;;;;;5023781;28;8853;-74
2021/04/23 11:57:12;;;;;;;;;5.80;5.00;;;;;;;;5026187;28;9639;-75
2021/04/23 11:59:58;;;;;;;;;8.00;6.00;;;;;;;;5028136;28;8988;-76
2021/04/23 12:02:39;;;;;;;;;7.60;7.60;;;;;;;;5024440;28;9494;-76
2021/04/23 12:05:08;;;;;;;;;11.20;8.20;;;;;;;;5023534;28;9655;-74
2021/04/23 12:07:43;;;;;;;;;7.00;7.00;;;;;;;;5024739;28;8875;-75
2021/04/23 12:10:14;;;;;;;;;7.40;6.40;;;;;;;;5032514;28;8973;-75
2021/04/23 12:12:44;;;;;;;;;8.60;7.00;;;;;;;;5037263;28;9046;-75
2021/04/23 12:15:23;;;;;;;;;5.60;5.60;;;;;;;;5030129;28;8871;-76
2021/04/23 12:17:50;;;;;;;;;5.00;5.00;;;;;;;;5027638;28;8909;-75
2021/04/23 12:20:19;;;;;;;;;7.20;5.80;;;;;;;;5019831;28;8913;-77
2021/04/23 12:22:48;;;;;;;;;9.60;8.40;;;;;;;;5031494;28;8863;-75
2021/04/23 12:25:35;;;;;;;;;5.80;5.80;;;;;;;;5029093;28;8847;-76
2021/04/23 12:28:33;;;;;;;;;6.80;6.80;;;;;;;;5040135;28;9699;-75
2021/04/23 12:31:10;;;;;;;;;9.00;5.60;;;;;;;;5035434;28;8784;-76
2021/04/23 12:33:40;;;;;;;;;8.00;6.00;;;;;;;;5028361;28;9795;-76
2021/04/23 12:36:15;;;;;;;;;5.80;5.80;;;;;;;;5029150;28;8885;-75
2021/04/23 12:38:45;;;;;;;;;7.60;7.60;;;;;;;;5022848;28;8891;-75
2021/04/23 12:41:17;;;;;;;;;4.20;4.20;;;;;;;;5023417;28;8932;-77
2021/04/23 12:43:44;;;;;;;;;3.60;3.60;;;;;;;;5015427;28;9552;-74
2021/04/23 12:46:21;;;;;;;;;3.20;3.20;;;;;;;;5025399;28;8899;-76
2021/04/23 12:48:56;;;;;;;;;7.80;7.40;;;;;;;;5024945;28;8998;-76
2021/04/23 12:51:23;;;;;;;;;6.60;6.60;;;;;;;;5035601;28;8878;-75
2021/04/23 12:53:52;;;;;;;;;6.00;5.40;;;;;;;;5042283;28;8913;-76
2021/04/23 12:56:21;;;;;;;;;5.20;5.20;;;;;;;;5045428;28;8870;-76
2021/04/23 12:58:51;;;;;;;;;7.40;7.00;;;;;;;;5036793;28;9446;-74
2021/04/23 13:01:19;;;;;;;;;6.60;6.60;;;;;;;;5034198;28;8807;-75
2021/04/23 13:04:01;;;;;;;;;9.40;6.00;;;;;;;;5035663;28;9057;-76
2021/04/23 13:06:28;;;;;;;;;8.80;7.40;;;;;;;;5042453;28;8884;-77
2021/04/23 13:09:00;;;;;;;;;4.80;4.80;;;;;;;;5039158;28;8864;-75
2021/04/23 13:11:29;;;;;;;;;7.40;6.40;;;;;;;;5028810;28;9698;-76
2021/04/23 13:13:56;;;;;;;;;5.60;5.20;;;;;;;;5034424;28;8873;-75
2021/04/23 13:16:23;;;;;;;;;5.00;5.00;;;;;;;;5030497;28;8873;-75
2021/04/23 13:18:50;;;;;;;;;4.00;4.00;;;;;;;;5041370;28;8893;-77
2021/04/23 13:21:19;;;;;;;;;5.80;5.40;;;;;;;;5037859;28;8862;-77
2021/04/23 13:23:49;;;;;;;;;5.20;5.20;;;;;;;;5043373;28;8886;-76
2021/04/23 13:26:31;;;;;;;;;6.80;5.40;;;;;;;;5026662;28;8857;-77
2021/04/23 13:29:00;;;;;;;;;6.20;6.20;;;;;;;;5024614;28;8995;-75
2021/04/23 13:31:27;;;;;;;;;4.40;4.40;;;;;;;;5021608;28;8801;-77
2021/04/23 13:34:03;;;;;;;;;6.60;6.60;;;;;;;;5022405;28;8932;-77
2021/04/23 13:36:30;;;;;;;;;5.00;4.20;;;;;;;;5025773;28;8881;-78
2021/04/23 13:38:59;;;;;;;;;6.00;6.00;;;;;;;;5022645;28;8878;-77
2021/04/23 13:41:28;;;;;;;;;4.20;4.20;;;;;;;;5034808;28;8857;-76
2021/04/23 13:44:07;;;;;;;;;4.80;4.80;;;;;;;;5025004;28;9650;-75
2021/04/23 13:46:36;;;;;;;;;7.00;7.00;;;;;;;;5022118;28;8949;-77
2021/04/23 13:49:06;;;;;;;;;8.20;8.20;;;;;;;;5020370;28;8858;-76
2021/04/23 13:51:34;;;;;;;;;4.80;4.80;;;;;;;;5023163;28;8901;-76
2021/04/23 13:54:12;;;;;;;;;5.00;5.00;;;;;;;;5025641;28;9691;-77
2021/04/23 13:56:41;;;;;;;;;6.00;6.00;;;;;;;;5036594;28;8867;-77
2021/04/23 13:59:11;;;;;;;;;8.00;6.40;;;;;;;;5025927;28;8897;-76
2021/04/23 14:01:48;;;;;;;;;6.20;6.20;;;;;;;;5024493;28;8790;-77
2021/04/23 14:04:16;;;;;;;;;6.00;6.00;;;;;;;;5024339;28;8861;-77
2021/04/23 14:06:44;;;;;;;;;5.40;5.40;;;;;;;;5016560;28;8888;-77
2021/04/23 14:09:13;;;;;;;;;6.40;6.40;;;;;;;;5022591;28;9054;-77
2021/04/23 14:11:42;;;;;;;;;5.40;3.60;;;;;;;;5025387;28;8868;-76
2021/04/23 14:14:11;;;;;;;;;5.80;5.80;;;;;;;;5024366;28;8893;-76
2021/04/23 14:16:39;;;;;;;;;5.80;5.80;;;;;;;;5033810;28;8846;-77
2021/04/23 14:19:07;;;;;;;;;5.60;5.60;;;;;;;;5039851;28;8843;-77
2021/04/23 14:21:36;;;;;;;;;8.20;8.20;;;;;;;;5034539;28;8877;-77
2021/04/23 14:24:06;;;;;;;;;7.00;7.00;;;;;;;;5026138;28;9780;-77
2021/04/23 14:26:33;;;;;;;;;5.60;5.60;;;;;;;;5039910;28;8866;-77
2021/04/23 14:29:00;;;;;;;;;5.60;5.60;;;;;;;;5033050;28;8865;-76
2021/04/23 14:31:28;;;;;;;;;7.40;6.20;;;;;;;;5022817;28;8834;-75
2021/04/23 14:33:55;;;;;;;;;6.60;6.60;;;;;;;;5024481;28;8866;-74
2021/04/23 14:36:22;;;;;;;;;5.40;5.40;;;;;;;;5026703;28;8873;-75
2021/04/23 14:38:49;;;;;;;;;7.40;7.40;;;;;;;;5040606;28;8851;-76
2021/04/23 14:41:16;;;;;;;;;7.80;6.40;;;;;;;;5017298;28;8850;-75
2021/04/23 14:43:43;;;;;;;;;9.00;7.60;;;;;;;;5023258;28;8963;-74
2021/04/23 14:46:11;;;;;;;;;6.00;6.00;;;;;;;;5007807;28;8994;-74